Time;durP1;ratioP1;P1;durP2;ratioP2;P2;SDS_P1;SDS_P2;PMS_P1;PMS_P2;Temp;Humidity;BMP_temperature;BMP_pressure;BME280_temperature;BME280_humidity;BME280_pressure;Samples;Min_cycle;Max_cycle;Signal;HPM_P1;HPM_P2
2022/01/12 00:01:11;;;;;;;22.50;14.73;;;;;;;2.47;91.14;103474.09;5098289;28;20058;-64
2022/01/12 00:03:36;;;;;;;25.50;13.95;;;;;;;2.48;91.14;103475.00;5098309;28;20342;-64
2022/01/12 00:06:04;;;;;;;24.05;14.10;;;;;;;2.53;91.66;103489.09;5098296;28;20059;-66
2022/01/12 00:08:31;;;;;;;26.75;14.27;;;;;;;2.55;90.82;103495.25;5098480;28;20355;-67
2022/01/12 00:11:01;;;;;;;27.02;14.48;;;;;;;2.56;90.59;103491.88;5098203;28;20039;-65
2022/01/12 00:13:26;;;;;;;25.15;14.95;;;;;;;2.56;91.27;103494.47;5098053;28;20051;-66
2022/01/12 00:15:52;;;;;;;24.38;13.90;;;;;;;2.57;90.97;103486.81;5097946;28;20036;-65
2022/01/12 00:18:18;;;;;;;28.77;13.98;;;;;;;2.60;91.24;103497.31;5098128;28;20419;-65
2022/01/12 00:20:43;;;;;;;25.00;15.18;;;;;;;2.61;90.94;103493.94;5098301;28;20024;-66
2022/01/12 00:23:09;;;;;;;27.48;14.43;;;;;;;2.65;90.51;103501.06;5098116;28;20081;-65
2022/01/12 00:25:55;;;;;;;28.25;14.85;;;;;;;2.66;90.91;103509.72;5097982;28;20024;-65
2022/01/12 00:33:49;;;;;;;26.75;14.18;;;;;;;2.69;90.32;103504.75;5097841;28;20078;-66
2022/01/12 00:36:14;;;;;;;28.92;15.57;;;;;;;2.67;90.68;103504.66;5097751;28;20051;-65
2022/01/12 00:38:39;;;;;;;27.65;14.43;;;;;;;2.67;90.70;103512.41;5097045;28;20034;-66
2022/01/12 00:41:05;;;;;;;23.17;13.93;;;;;;;2.75;90.70;103518.97;5097381;28;20028;-64
2022/01/12 00:43:33;;;;;;;25.42;14.38;;;;;;;2.77;90.08;103524.22;5080115;28;20040;-64
2022/01/12 00:45:59;;;;;;;27.85;14.32;;;;;;;2.78;90.77;103520.81;5097758;28;20109;-64
2022/01/12 00:48:24;;;;;;;24.13;13.77;;;;;;;2.77;91.05;103531.97;5097371;28;20431;-66
2022/01/12 00:50:49;;;;;;;27.60;15.23;;;;;;;2.71;91.31;103521.25;5097516;28;20427;-66
2022/01/12 00:53:16;;;;;;;31.50;16.00;;;;;;;2.73;92.15;103537.75;5097493;28;20040;-63
2022/01/12 00:55:41;;;;;;;28.50;15.18;;;;;;;2.67;92.23;103539.94;5097330;28;20105;-65
2022/01/12 00:58:07;;;;;;;31.63;16.13;;;;;;;2.57;93.38;103540.19;5097500;28;20116;-67
2022/01/12 01:00:33;;;;;;;30.30;15.93;;;;;;;2.48;94.31;103539.59;5096734;28;20380;-65
2022/01/12 01:02:59;;;;;;;29.38;16.73;;;;;;;2.47;95.13;103550.72;5097352;28;20043;-65
2022/01/12 01:05:27;;;;;;;32.35;17.33;;;;;;;2.42;95.73;103542.72;5097348;28;20036;-66
2022/01/12 01:07:52;;;;;;;32.38;17.85;;;;;;;2.40;95.97;103545.19;5097213;28;20040;-67
2022/01/12 01:11:01;;;;;;;32.28;16.67;;;;;;;2.29;96.85;103547.88;5097524;28;20123;-66
2022/01/12 01:13:08;;;;;;;33.22;18.10;;;;;;;2.25;97.99;103557.13;5088679;28;20032;-66
2022/01/12 01:26:17;;;;;;;36.60;19.70;;;;;;;2.12;100.00;103543.31;5097217;28;20409;-65
2022/01/12 01:28:42;;;;;;;33.13;18.20;;;;;;;2.11;100.00;103534.69;5096999;28;20032;-64
2022/01/12 01:31:07;;;;;;;35.13;19.85;;;;;;;2.09;100.00;103531.09;5096617;28;20024;-65
2022/01/12 01:33:33;;;;;;;36.65;20.02;;;;;;;2.01;100.00;103528.03;5096848;28;20036;-66
2022/01/12 01:35:58;;;;;;;38.45;19.90;;;;;;;1.99;100.00;103526.16;5096586;28;20034;-67
2022/01/12 01:38:24;;;;;;;34.35;19.42;;;;;;;2.02;100.00;103549.59;5096629;28;20028;-67
2022/01/12 01:40:49;;;;;;;36.22;20.65;;;;;;;1.91;100.00;103548.88;5096699;28;20035;-64
2022/01/12 01:53:53;;;;;;;38.75;20.15;;;;;;;2.01;100.00;103566.78;5097311;28;20055;-65
2022/01/12 01:56:19;;;;;;;38.40;21.13;;;;;;;2.05;100.00;103562.72;5096344;28;20032;-67
2022/01/12 01:58:47;;;;;;;39.25;21.30;;;;;;;2.06;100.00;103544.75;5096041;28;20027;-66
2022/01/12 02:01:12;;;;;;;35.22;20.38;;;;;;;2.06;100.00;103525.78;5096241;28;20036;-65
2022/01/12 02:03:38;;;;;;;43.90;21.17;;;;;;;2.03;100.00;103522.97;5096173;28;20043;-65
2022/01/12 02:06:04;;;;;;;42.00;21.42;;;;;;;2.05;100.00;103527.47;5095764;28;20028;-66
2022/01/12 02:08:30;;;;;;;44.38;20.85;;;;;;;2.07;100.00;103515.53;5095953;28;20036;-65
2022/01/12 02:10:57;;;;;;;37.67;20.77;;;;;;;2.05;100.00;103517.13;5094946;28;20496;-65
2022/01/12 02:13:23;;;;;;;42.47;22.20;;;;;;;1.98;100.00;103524.38;5095291;28;20460;-65
2022/01/12 02:15:49;;;;;;;42.22;21.05;;;;;;;1.97;100.00;103525.16;5096620;28;20027;-64
2022/01/12 02:18:30;;;;;;;43.40;21.98;;;;;;;2.00;100.00;103522.78;5096216;28;20377;-64
2022/01/12 02:36:07;;;;;;;43.00;22.42;;;;;;;2.06;100.00;103552.50;5095062;28;20082;-64
2022/01/12 02:40:30;;;;;;;42.80;20.33;;;;;;;2.13;100.00;103561.50;5095402;28;20039;-65
2022/01/12 02:43:11;;;;;;;37.95;21.30;;;;;;;2.10;100.00;103561.31;5095138;28;20397;-64
2022/01/12 02:53:43;;;;;;;39.67;20.92;;;;;;;2.10;100.00;103557.03;5095562;28;20039;-65
2022/01/12 02:56:30;;;;;;;40.15;21.02;;;;;;;2.25;100.00;103559.69;5094833;28;20468;-62
2022/01/12 02:58:58;;;;;;;38.45;21.25;;;;;;;2.15;100.00;103572.84;5094985;28;20096;-63
2022/01/12 03:04:05;;;;;;;45.03;22.15;;;;;;;2.17;100.00;103563.50;5094877;28;20043;-66
2022/01/12 03:06:37;;;;;;;47.40;21.95;;;;;;;2.17;100.00;103585.84;5095939;28;20032;-64
2022/01/12 03:09:06;;;;;;;43.88;22.77;;;;;;;2.15;100.00;103583.16;5095252;28;20072;-66
2022/01/12 03:11:32;;;;;;;40.50;22.20;;;;;;;2.20;100.00;103592.13;5095025;28;20145;-64
2022/01/12 03:13:58;;;;;;;47.90;22.67;;;;;;;2.15;100.00;103593.50;5094708;28;20438;-67
2022/01/12 03:16:25;;;;;;;44.22;22.63;;;;;;;2.16;100.00;103596.97;5095006;28;20111;-65
2022/01/12 03:18:57;;;;;;;45.90;23.35;;;;;;;2.20;100.00;103611.88;5095189;28;20028;-64
2022/01/12 03:21:33;;;;;;;43.20;23.15;;;;;;;2.20;100.00;103610.19;5094670;28;20398;-65
2022/01/12 03:23:59;;;;;;;49.00;22.98;;;;;;;2.23;100.00;103615.56;5098149;28;20439;-65
2022/01/12 03:26:28;;;;;;;45.88;23.58;;;;;;;2.23;100.00;103615.56;5098974;28;20028;-65
2022/01/12 03:28:55;;;;;;;44.38;23.73;;;;;;;2.24;100.00;103619.94;5099059;28;20031;-64
2022/01/12 03:31:28;;;;;;;44.95;24.67;;;;;;;2.23;100.00;103612.09;5099183;28;20040;-65
2022/01/12 03:33:59;;;;;;;43.75;22.27;;;;;;;2.29;100.00;103618.53;5098916;28;20027;-64
2022/01/12 03:36:27;;;;;;;43.88;24.13;;;;;;;2.26;100.00;103609.69;5099172;28;20081;-65
2022/01/12 03:38:54;;;;;;;49.17;24.08;;;;;;;2.29;100.00;103615.06;5098948;28;20051;-66
2022/01/12 03:41:21;;;;;;;46.70;25.60;;;;;;;2.28;100.00;103605.50;5098717;28;20035;-69
2022/01/12 03:43:47;;;;;;;45.47;23.92;;;;;;;2.27;100.00;103604.63;5098798;28;20035;-67
2022/01/12 03:46:14;;;;;;;46.75;24.33;;;;;;;2.27;100.00;103609.78;5098797;28;20040;-65
2022/01/12 03:48:40;;;;;;;45.40;24.23;;;;;;;2.21;100.00;103603.34;5098688;28;20454;-66
2022/01/12 03:51:05;;;;;;;47.55;24.58;;;;;;;2.18;100.00;103598.88;5098474;28;20027;-66
2022/01/12 03:53:31;;;;;;;48.08;24.38;;;;;;;2.20;100.00;103601.56;5098959;28;20028;-66
2022/01/12 03:55:56;;;;;;;45.75;24.38;;;;;;;2.12;100.00;103589.81;5098787;28;20093;-64
2022/01/12 03:58:21;;;;;;;51.70;25.13;;;;;;;2.20;100.00;103615.38;5098817;28;20040;-66
2022/01/12 04:00:47;;;;;;;52.42;25.88;;;;;;;2.15;100.00;103598.66;5102142;28;20106;-65
2022/01/12 04:03:14;;;;;;;51.63;25.73;;;;;;;2.24;100.00;103617.38;5098366;28;20437;-65
2022/01/12 04:08:18;;;;;;;51.40;25.38;;;;;;;2.27;100.00;103634.72;5098415;28;20035;-65
2022/01/12 04:08:25;;;;;;;50.42;24.70;;;;;;;2.23;100.00;103628.50;5098421;28;20461;-64
2022/01/12 04:10:54;;;;;;;52.20;26.45;;;;;;;2.17;100.00;103622.00;5098393;28;20071;-66
2022/01/12 04:13:25;;;;;;;51.88;25.33;;;;;;;2.21;100.00;103632.66;5098119;28;20125;-65
2022/01/12 04:15:54;;;;;;;48.90;25.75;;;;;;;2.18;100.00;103640.19;5098271;28;20028;-64
2022/01/12 04:18:19;;;;;;;50.38;25.65;;;;;;;2.12;100.00;103642.38;5098108;28;20048;-63
2022/01/12 04:20:46;;;;;;;53.25;26.10;;;;;;;2.09;100.00;103637.00;5098287;28;20020;-64
2022/01/12 04:23:17;;;;;;;52.08;26.08;;;;;;;2.10;100.00;103636.19;5098492;28;20043;-64
2022/01/12 04:25:43;;;;;;;57.80;27.08;;;;;;;2.07;100.00;103636.94;5098009;28;20126;-63
2022/01/12 04:28:09;;;;;;;57.30;27.95;;;;;;;2.09;100.00;103648.22;5097926;28;20035;-65
2022/01/12 04:30:34;;;;;;;53.92;27.23;;;;;;;2.05;100.00;103635.03;5098290;28;20036;-66
2022/01/12 04:32:59;;;;;;;60.90;27.95;;;;;;;1.99;100.00;103634.63;5097809;28;20482;-64
2022/01/12 04:35:30;;;;;;;54.88;27.95;;;;;;;2.02;100.00;103632.25;5097120;28;20107;-66
2022/01/12 04:37:55;;;;;;;57.95;27.90;;;;;;;1.98;100.00;103633.72;5097965;28;20036;-64
2022/01/12 04:40:20;;;;;;;53.10;28.15;;;;;;;1.99;100.00;103616.53;5097880;28;20131;-65
2022/01/12 04:42:45;;;;;;;57.10;29.73;;;;;;;2.03;100.00;103616.84;5097592;28;20035;-65
2022/01/12 04:45:18;;;;;;;59.75;28.23;;;;;;;2.02;100.00;103629.66;5097535;28;20452;-66
2022/01/12 04:50:26;;;;;;;55.47;27.70;;;;;;;2.03;100.00;103623.69;5097370;28;20351;-64
2022/01/12 04:52:52;;;;;;;55.13;27.88;;;;;;;2.06;100.00;103627.38;5097858;28;20101;-64
2022/01/12 04:55:18;;;;;;;59.72;28.35;;;;;;;2.08;100.00;103622.28;5097618;28;20028;-65
2022/01/12 04:57:43;;;;;;;58.75;28.77;;;;;;;2.07;100.00;103618.84;5097292;28;20024;-64
2022/01/12 05:00:15;;;;;;;62.08;28.83;;;;;;;2.12;100.00;103606.22;5097475;28;20035;-64
2022/01/12 05:13:23;;;;;;;67.22;31.08;;;;;;;2.02;100.00;103611.56;5097457;28;20062;-63
2022/01/12 05:15:48;;;;;;;60.70;29.48;;;;;;;2.03;100.00;103618.53;5097321;28;20111;-63
2022/01/12 05:18:13;;;;;;;65.38;30.75;;;;;;;1.95;100.00;103602.53;5096940;28;20063;-65
2022/01/12 05:20:39;;;;;;;67.05;29.80;;;;;;;2.03;100.00;103616.84;5097021;28;20447;-64
2022/01/12 05:23:04;;;;;;;70.50;32.25;;;;;;;2.07;100.00;103612.78;5096868;28;20035;-58
2022/01/12 05:25:29;;;;;;;62.85;30.52;;;;;;;2.06;100.00;103623.91;5097155;28;20047;-64
2022/01/12 05:27:54;;;;;;;65.68;31.00;;;;;;;2.04;100.00;103610.00;5096663;28;20055;-65
2022/01/12 05:30:20;;;;;;;71.25;31.83;;;;;;;2.10;100.00;103615.53;5097023;28;20024;-64
2022/01/12 05:32:46;;;;;;;66.07;31.20;;;;;;;2.12;100.00;103620.81;5096831;28;20023;-64
2022/01/12 05:35:13;;;;;;;59.95;30.38;;;;;;;2.13;100.00;103632.94;5096564;28;20074;-64
2022/01/12 05:37:40;;;;;;;67.22;31.63;;;;;;;2.16;100.00;103636.63;5096584;28;20028;-65
2022/01/12 05:40:07;;;;;;;65.28;30.95;;;;;;;2.15;100.00;103646.84;5096521;28;20085;-66
2022/01/12 05:42:32;;;;;;;68.47;31.15;;;;;;;2.06;100.00;103631.66;5096739;28;20032;-65
2022/01/12 05:44:57;;;;;;;68.90;32.00;;;;;;;2.14;100.00;103648.53;5097020;28;20394;-64
2022/01/12 05:50:14;;;;;;;62.65;30.10;;;;;;;2.16;100.00;103644.38;5072558;28;20024;-65
2022/01/12 05:52:40;;;;;;;63.20;30.95;;;;;;;2.15;100.00;103646.84;5096308;28;20422;-64
2022/01/12 05:55:07;;;;;;;63.90;30.90;;;;;;;2.17;100.00;103653.00;5096532;28;20036;-66
2022/01/12 05:57:33;;;;;;;64.22;31.83;;;;;;;2.14;100.00;103650.22;5096678;28;20040;-65
2022/01/12 05:59:59;;;;;;;69.00;31.58;;;;;;;2.06;100.00;103637.72;5096145;28;20028;-64
2022/01/12 06:02:25;;;;;;;64.63;32.38;;;;;;;2.12;100.00;103644.94;5096137;28;20055;-66
2022/01/12 06:04:51;;;;;;;67.35;31.63;;;;;;;2.13;100.00;103641.56;5095738;28;20427;-64
2022/01/12 06:07:16;;;;;;;69.55;32.47;;;;;;;2.15;100.00;103650.31;5095955;28;20439;-64
2022/01/12 06:09:42;;;;;;;69.10;31.85;;;;;;;2.18;100.00;103657.38;5096111;28;20043;-64
2022/01/12 06:12:08;;;;;;;65.35;31.98;;;;;;;2.17;100.00;103653.91;5096084;28;20297;-64
2022/01/12 06:14:34;;;;;;;67.75;32.95;;;;;;;2.15;100.00;103659.75;5095666;28;20059;-64
2022/01/12 06:16:59;;;;;;;67.38;32.67;;;;;;;2.08;100.00;103651.59;5095650;28;20032;-64
2022/01/12 06:19:24;;;;;;;72.57;33.80;;;;;;;2.07;100.00;103654.09;5096013;28;20129;-66
2022/01/12 06:21:49;;;;;;;73.25;33.85;;;;;;;2.05;100.00;103659.16;5095836;28;20055;-66
2022/01/12 06:24:15;;;;;;;75.18;33.72;;;;;;;2.05;100.00;103663.44;5096032;28;20032;-64
2022/01/12 06:26:42;;;;;;;72.60;33.55;;;;;;;2.08;100.00;103680.00;5095871;28;20081;-63
2022/01/12 06:31:40;;;;;;;74.07;34.00;;;;;;;2.15;100.00;103683.91;5095880;28;20047;-65
2022/01/12 06:34:06;;;;;;;72.43;35.25;;;;;;;2.15;100.00;103693.34;5095556;28;20427;-66
2022/01/12 06:36:32;;;;;;;67.68;33.25;;;;;;;2.16;100.00;103696.03;5095559;28;20101;-63
2022/01/12 06:38:57;;;;;;;74.70;33.47;;;;;;;2.16;100.00;103693.44;5095275;28;20028;-63
2022/01/12 06:41:24;;;;;;;73.70;33.88;;;;;;;2.14;100.00;103701.88;5095390;28;20355;-64
2022/01/12 06:43:49;;;;;;;73.80;33.65;;;;;;;2.09;100.00;103698.97;5095185;28;20069;-63
2022/01/12 06:46:17;;;;;;;76.25;34.45;;;;;;;2.08;100.00;103699.78;5095250;28;20035;-63
2022/01/12 06:48:43;;;;;;;72.97;33.35;;;;;;;2.07;100.00;103714.41;5095023;28;20127;-64
2022/01/12 06:51:08;;;;;;;73.18;33.67;;;;;;;2.09;100.00;103720.53;5094172;28;20110;-65
2022/01/12 06:53:34;;;;;;;73.13;33.72;;;;;;;2.05;100.00;103713.41;5115970;27;20039;-64
2022/01/12 06:55:59;;;;;;;75.03;33.85;;;;;;;2.11;100.00;103715.47;5135374;27;20414;-66
2022/01/12 06:58:25;;;;;;;74.40;33.50;;;;;;;2.03;100.00;103696.00;5135638;27;20042;-65
2022/01/12 07:00:50;;;;;;;71.82;35.22;;;;;;;2.05;100.00;103709.94;5135544;27;20023;-64
2022/01/12 07:03:16;;;;;;;72.95;32.97;;;;;;;2.06;100.00;103717.78;5135981;27;20046;-63
2022/01/12 07:05:41;;;;;;;73.68;34.20;;;;;;;2.01;100.00;103711.41;5135741;27;20035;-64
2022/01/12 07:08:06;;;;;;;72.88;33.92;;;;;;;2.06;100.00;103722.06;5135867;27;20104;-63
2022/01/12 07:10:31;;;;;;;79.95;35.35;;;;;;;2.07;100.00;103719.56;5135356;27;20035;-64
2022/01/12 07:12:57;;;;;;;73.55;34.72;;;;;;;2.08;100.00;103726.50;5135498;27;20031;-62
2022/01/12 07:15:22;;;;;;;75.28;33.97;;;;;;;2.08;100.00;103746.25;5122927;27;20054;-62
2022/01/12 07:17:48;;;;;;;78.60;34.90;;;;;;;2.13;100.00;103747.47;5115188;28;20038;-64
2022/01/12 07:20:14;;;;;;;76.72;35.80;;;;;;;2.11;100.00;103730.97;5115149;28;20031;-65
2022/01/12 07:22:39;;;;;;;74.55;34.38;;;;;;;1.96;100.00;103704.13;5115172;28;20081;-64
2022/01/12 07:25:05;;;;;;;74.03;35.30;;;;;;;2.15;100.00;103743.31;5115213;28;20030;-63
2022/01/12 07:27:30;;;;;;;70.07;35.33;;;;;;;2.13;100.00;103734.56;5114717;28;20027;-63
2022/01/12 07:29:56;;;;;;;77.93;35.95;;;;;;;2.19;100.00;103747.00;5114810;28;20032;-63
2022/01/12 07:32:21;;;;;;;74.38;34.78;;;;;;;2.20;100.00;103746.22;5114954;28;20027;-62
2022/01/12 07:34:46;;;;;;;71.03;33.75;;;;;;;2.19;100.00;103750.50;5114977;28;20042;-62
2022/01/12 07:37:12;;;;;;;76.88;34.97;;;;;;;2.17;100.00;103754.66;5115069;28;20438;-64
2022/01/12 07:39:37;;;;;;;74.25;34.30;;;;;;;2.18;100.00;103760.72;5114906;28;20035;-63
2022/01/12 07:42:03;;;;;;;72.10;34.33;;;;;;;2.24;100.00;103768.88;5114993;28;20103;-64
2022/01/12 07:44:29;;;;;;;75.85;35.13;;;;;;;2.23;100.00;103780.91;5114979;28;20027;-64
2022/01/12 07:46:55;;;;;;;75.05;34.45;;;;;;;2.21;100.00;103774.75;5114931;28;20039;-63
2022/01/12 07:49:20;;;;;;;73.38;34.63;;;;;;;2.25;100.00;103775.84;5115454;28;20063;-65
2022/01/12 07:51:45;;;;;;;70.07;34.63;;;;;;;2.21;100.00;103772.16;5115276;28;20019;-64
2022/01/12 07:54:11;;;;;;;77.05;33.70;;;;;;;2.24;100.00;103782.69;5114691;28;20027;-65
2022/01/12 07:56:36;;;;;;;71.88;33.63;;;;;;;2.26;100.00;103788.84;5115056;28;20019;-66
2022/01/12 07:59:01;;;;;;;73.55;33.90;;;;;;;2.31;100.00;103790.06;5115090;28;20119;-64
2022/01/12 08:01:27;;;;;;;71.97;34.72;;;;;;;2.32;100.00;103799.59;5114591;28;20027;-64
2022/01/12 08:03:52;;;;;;;71.97;33.38;;;;;;;2.32;100.00;103797.00;5103147;28;20032;-65
2022/01/12 08:06:18;;;;;;;73.10;34.38;;;;;;;2.38;100.00;103812.94;5076636;28;20028;-63
2022/01/12 08:08:43;;;;;;;74.03;33.72;;;;;;;2.39;100.00;103803.50;5094792;28;20090;-66
2022/01/12 08:11:08;;;;;;;82.22;35.63;;;;;;;2.38;100.00;103815.53;5097651;28;20089;-65
2022/01/12 08:13:33;;;;;;;75.07;34.40;;;;;;;2.44;100.00;103804.69;5098037;28;20443;-66
2022/01/12 08:15:59;;;;;;;76.07;35.15;;;;;;;2.48;100.00;103826.47;5098604;28;20028;-68
2022/01/12 08:18:24;;;;;;;76.07;36.15;;;;;;;2.52;100.00;103834.53;5098349;28;20036;-64
2022/01/12 08:20:50;;;;;;;84.28;36.25;;;;;;;2.53;100.00;103836.34;5098174;28;20031;-66
2022/01/12 08:23:15;;;;;;;82.82;36.45;;;;;;;2.53;100.00;103832.84;5097984;28;20120;-65
2022/01/12 08:25:41;;;;;;;84.82;37.58;;;;;;;2.58;100.00;103852.16;5098131;28;20121;-64
2022/01/12 08:28:06;;;;;;;89.00;37.22;;;;;;;2.59;100.00;103841.94;5098276;28;20568;-64
2022/01/12 08:30:34;;;;;;;86.38;37.28;;;;;;;2.53;100.00;103830.28;5097825;28;20039;-65
2022/01/12 08:33:00;;;;;;;94.47;38.25;;;;;;;2.63;100.00;103849.06;5098123;28;20439;-66
2022/01/12 08:35:27;;;;;;;96.55;37.60;;;;;;;2.68;100.00;103841.63;5091328;28;20046;-64
2022/01/12 08:37:52;;;;;;;98.13;38.60;;;;;;;2.63;100.00;103832.66;5097577;28;20114;-65
2022/01/12 08:40:19;;;;;;;99.88;39.60;;;;;;;2.65;100.00;103844.91;5097622;28;20105;-63
2022/01/12 08:42:44;;;;;;;102.85;40.88;;;;;;;2.68;100.00;103844.22;5097524;28;20469;-64
2022/01/12 08:45:11;;;;;;;102.20;39.58;;;;;;;2.69;100.00;103838.25;5097966;28;20115;-64
2022/01/12 08:47:36;;;;;;;106.38;38.28;;;;;;;2.68;100.00;103833.88;5098088;28;20101;-65
2022/01/12 08:50:04;;;;;;;102.60;40.15;;;;;;;2.70;100.00;103832.28;5096978;28;20036;-66
2022/01/12 08:52:30;;;;;;;101.65;39.40;;;;;;;2.74;100.00;103840.38;5097501;28;20043;-65
2022/01/12 08:54:55;;;;;;;98.63;39.08;;;;;;;2.78;100.00;103838.84;5097363;28;20032;-65
2022/01/12 08:57:21;;;;;;;107.70;39.28;;;;;;;2.87;100.00;103847.22;5097393;28;20035;-64
2022/01/12 08:59:46;;;;;;;97.18;38.30;;;;;;;2.86;100.00;103836.78;5097614;28;20115;-65
2022/01/12 09:02:14;;;;;;;111.10;39.92;;;;;;;2.91;100.00;103840.59;5097484;28;20032;-66
2022/01/12 09:04:43;;;;;;;101.82;37.95;;;;;;;2.94;100.00;103851.13;5097512;28;20032;-64
2022/01/12 09:07:08;;;;;;;103.55;38.80;;;;;;;2.95;100.00;103843.44;5097000;28;20032;-66
2022/01/12 09:09:35;;;;;;;112.53;39.05;;;;;;;2.95;100.00;103852.91;5097239;28;20040;-66
2022/01/12 09:12:00;;;;;;;110.15;39.10;;;;;;;2.99;100.00;103863.56;5097174;28;20035;-64
2022/01/12 09:14:26;;;;;;;100.97;38.92;;;;;;;3.05;100.00;103869.16;5097431;28;20056;-64
2022/01/12 09:16:54;;;;;;;104.38;39.10;;;;;;;3.07;100.00;103869.25;5096610;28;20092;-64
2022/01/12 09:19:23;;;;;;;102.70;38.30;;;;;;;3.12;100.00;103878.19;5096538;28;20111;-67
2022/01/12 09:21:49;;;;;;;104.88;37.90;;;;;;;3.11;100.00;103877.31;5096599;28;20036;-65
2022/01/12 09:24:15;;;;;;;89.78;33.00;;;;;;;3.17;100.00;103886.25;5096726;28;20347;-64
2022/01/12 09:26:41;;;;;;;79.10;31.80;;;;;;;3.17;100.00;103889.75;5097111;28;20032;-63
2022/01/12 09:29:06;;;;;;;86.82;33.75;;;;;;;3.18;100.00;103881.19;5096751;28;20020;-64
2022/01/12 09:31:31;;;;;;;96.53;34.45;;;;;;;3.22;100.00;103890.94;5097028;28;20028;-65
2022/01/12 09:33:57;;;;;;;90.10;35.53;;;;;;;3.24;100.00;103891.06;5096809;28;20032;-64
2022/01/12 09:36:22;;;;;;;91.55;34.45;;;;;;;3.27;100.00;103901.59;5096435;28;20343;-65
2022/01/12 09:38:48;;;;;;;86.28;30.92;;;;;;;3.29;100.00;103907.78;5096831;28;20126;-64
2022/01/12 09:41:13;;;;;;;90.30;31.23;;;;;;;3.28;100.00;103906.88;5096485;28;20137;-65
2022/01/12 09:43:41;;;;;;;94.53;27.73;;;;;;;3.24;100.00;103898.81;5096728;28;20120;-64
2022/01/12 09:46:08;;;;;;;81.68;29.33;;;;;;;3.18;100.00;103904.47;5096519;28;20027;-64
2022/01/12 09:48:34;;;;;;;87.63;29.15;;;;;;;3.15;100.00;103910.34;5096467;28;20085;-64
2022/01/12 09:51:03;;;;;;;75.80;29.90;;;;;;;3.19;100.00;103898.50;5096447;28;20477;-64
2022/01/12 09:53:33;;;;;;;85.95;31.60;;;;;;;3.26;100.00;103905.00;5096072;28;20024;-66
2022/01/12 09:55:59;;;;;;;91.00;32.03;;;;;;;3.30;100.00;103912.13;5096586;28;20114;-64
2022/01/12 09:58:24;;;;;;;110.03;32.85;;;;;;;3.27;100.00;103902.50;5096623;28;20135;-64
2022/01/12 10:01:01;;;;;;;85.18;32.47;;;;;;;3.32;100.00;103908.84;5096506;28;20028;-64
2022/01/12 10:03:27;;;;;;;89.18;31.70;;;;;;;3.34;100.00;103922.78;5096314;28;20046;-65
2022/01/12 10:05:53;;;;;;;113.20;33.70;;;;;;;3.24;100.00;103904.00;5096096;28;20036;-61
2022/01/12 10:08:18;;;;;;;147.85;36.45;;;;;;;3.30;100.00;103930.25;5096037;28;20024;-64
2022/01/12 10:11:05;;;;;;;88.07;31.55;;;;;;;3.30;100.00;103948.38;5096176;28;20082;-66
2022/01/12 10:13:31;;;;;;;97.60;30.35;;;;;;;3.19;100.00;103942.50;5095856;28;20128;-66
2022/01/12 10:16:15;;;;;;;102.32;46.95;;;;;;;3.15;100.00;103936.22;5078161;28;20431;-64
2022/01/12 10:18:47;;;;;;;194.63;32.55;;;;;;;3.26;100.00;103943.81;5095973;28;20028;-65
2022/01/12 10:21:32;;;;;;;81.57;27.13;;;;;;;3.28;100.00;103934.47;5095793;28;20032;-64
2022/01/12 10:23:59;;;;;;;134.95;28.02;;;;;;;3.23;100.00;103936.72;5096189;28;20032;-66
2022/01/12 10:26:29;;;;;;;96.93;28.20;;;;;;;3.23;100.00;103928.97;5096349;28;20040;-66
2022/01/12 10:29:25;;;;;;;124.28;29.25;;;;;;;3.26;100.00;103934.34;5096086;28;20054;-66
2022/01/12 10:31:56;;;;;;;96.07;28.85;;;;;;;3.32;100.00;103933.84;5083980;28;20119;-63
2022/01/12 10:34:38;;;;;;;84.20;30.08;;;;;;;3.29;100.00;103918.13;5097911;28;20527;-66
2022/01/12 10:37:08;;;;;;;;;;;;;;;3.30;100.00;103922.47;5097444;28;20024;-64
2022/01/12 10:39:39;;;;;;;141.02;26.70;;;;;;;3.25;100.00;103924.78;5095613;28;19998;-65
2022/01/12 10:42:09;;;;;;;154.30;28.73;;;;;;;3.20;100.00;103922.69;5095817;28;20373;-66
2022/01/12 10:44:43;;;;;;;107.22;29.15;;;;;;;3.22;100.00;103931.44;5095565;28;20031;-65
2022/01/12 10:47:19;;;;;;;89.30;28.30;;;;;;;3.25;100.00;103936.84;5095403;28;20019;-64
2022/01/12 10:49:53;;;;;;;186.65;29.05;;;;;;;3.25;100.00;103929.97;5095697;28;20081;-63
2022/01/12 10:52:19;;;;;;;79.55;26.55;;;;;;;3.22;100.00;103936.63;5095507;28;20077;-66
2022/01/12 10:54:49;;;;;;;130.27;28.98;;;;;;;3.20;100.00;103933.94;5095700;28;20044;-65
2022/01/12 10:57:40;;;;;;;99.85;28.30;;;;;;;3.28;100.00;103937.03;5095717;28;20040;-69
2022/01/12 11:00:18;;;;;;;160.63;30.13;;;;;;;3.33;100.00;103946.88;5086520;28;20119;-66
2022/01/12 11:02:49;;;;;;;131.93;29.20;;;;;;;3.36;100.00;103941.00;5097481;28;20031;-63
2022/01/12 11:05:17;;;;;;;161.13;25.45;;;;;;;3.32;100.00;103955.44;5115611;28;20028;-65
2022/01/12 11:07:42;;;;;;;133.50;26.13;;;;;;;3.18;100.00;103958.81;5115025;28;20042;-64
2022/01/12 11:10:10;;;;;;;284.80;33.70;;;;;;;3.15;100.00;103946.56;5115104;28;20339;-68
2022/01/12 11:12:35;;;;;;;164.13;28.50;;;;;;;3.16;100.00;103931.94;5115269;28;20024;-65
2022/01/12 11:15:11;;;;;;;103.15;27.33;;;;;;;3.25;100.00;103939.41;5115367;28;20397;-64
2022/01/12 11:17:38;;;;;;;162.05;29.08;;;;;;;3.30;100.00;103940.59;5115095;28;20023;-66
2022/01/12 11:20:19;;;;;;;106.53;28.80;;;;;;;3.35;100.00;103941.81;5115360;28;20028;-66
2022/01/12 11:22:56;;;;;;;125.15;29.75;;;;;;;3.36;100.00;103931.56;5115572;28;20030;-67
2022/01/12 11:25:24;;;;;;;100.43;28.45;;;;;;;3.41;100.00;103937.03;5114999;28;20046;-65
2022/01/12 11:28:18;;;;;;;126.20;29.25;;;;;;;3.48;100.00;103946.97;5115580;28;20124;-65
2022/01/12 11:30:58;;;;;;;69.28;25.00;;;;;;;3.52;100.00;103950.69;5115070;28;20027;-64
2022/01/12 11:33:30;;;;;;;66.22;24.42;;;;;;;3.50;100.00;103954.06;5115269;28;20023;-66
2022/01/12 11:35:56;;;;;;;59.70;23.30;;;;;;;3.46;100.00;103949.47;5115274;28;20032;-64
2022/01/12 11:38:27;;;;;;;58.33;23.92;;;;;;;3.43;100.00;103953.56;5115487;28;20117;-66
2022/01/12 11:40:55;;;;;;;61.72;24.23;;;;;;;3.50;100.00;103959.25;5115190;28;20062;-67
2022/01/12 11:43:31;;;;;;;63.47;25.73;;;;;;;3.55;100.00;103959.53;5107763;28;20040;-64
2022/01/12 11:46:12;;;;;;;70.43;26.63;;;;;;;3.57;100.00;103945.00;5109313;28;20028;-65
2022/01/12 11:48:49;;;;;;;71.28;26.80;;;;;;;3.65;100.00;103951.56;5109333;28;20023;-66
2022/01/12 11:51:20;;;;;;;71.10;28.60;;;;;;;3.67;100.00;103938.72;5109182;28;20108;-65
2022/01/12 11:53:50;;;;;;;75.40;26.58;;;;;;;3.68;100.00;103928.47;5108243;28;20039;-66
2022/01/12 11:56:19;;;;;;;69.68;26.98;;;;;;;3.71;100.00;103928.66;5107175;28;20331;-65
2022/01/12 11:59:06;;;;;;;69.35;27.05;;;;;;;3.67;100.00;103934.44;5108434;28;20023;-67
2022/01/12 12:01:41;;;;;;;68.30;26.65;;;;;;;3.75;100.00;103933.25;5109178;28;20142;-67
2022/01/12 12:04:08;;;;;;;69.18;25.48;;;;;;;3.71;100.00;103935.53;5107748;28;20440;-65
2022/01/12 12:06:34;;;;;;;70.68;27.48;;;;;;;3.61;100.00;103934.06;5107094;28;20678;-64
2022/01/12 12:09:03;;;;;;;71.35;27.05;;;;;;;3.55;100.00;103943.13;5108988;28;20114;-64
2022/01/12 12:11:30;;;;;;;66.22;25.65;;;;;;;3.54;100.00;103941.31;5108365;28;20039;-67
2022/01/12 12:14:05;;;;;;;61.38;24.85;;;;;;;3.53;100.00;103940.41;5106806;28;20055;-66
2022/01/12 12:16:32;;;;;;;61.10;24.73;;;;;;;3.46;100.00;103936.53;5108406;28;20035;-65
2022/01/12 12:19:00;;;;;;;57.53;23.65;;;;;;;3.64;100.00;103934.22;5105685;28;20110;-64
2022/01/12 12:21:26;;;;;;;59.95;23.17;;;;;;;3.67;100.00;103939.63;5106763;28;20424;-65
2022/01/12 12:23:52;;;;;;;57.28;23.38;;;;;;;3.73;100.00;103947.78;5102495;28;20131;-64
2022/01/12 12:26:19;;;;;;;52.85;22.10;;;;;;;3.72;100.00;103947.69;5098309;28;20024;-66